createdAt,value
2023-04-05T00:01:39.051Z,6.20
2023-04-05T00:04:06.082Z,6.70
2023-04-05T00:06:32.913Z,8.07
2023-04-05T00:09:04.459Z,7.07
2023-04-05T00:11:33.171Z,5.93
2023-04-05T00:14:01.027Z,7.30
2023-04-05T00:16:29.395Z,8.03
2023-04-05T00:19:00.164Z,10.30
2023-04-05T00:21:26.855Z,7.80
2023-04-05T00:23:57.148Z,6.90
2023-04-05T00:26:24.336Z,10.27
2023-04-05T00:28:51.636Z,7.27
2023-04-05T00:31:19.105Z,6.90
2023-04-05T00:33:46.222Z,5.40
2023-04-05T00:36:15.317Z,9.73
2023-04-05T00:38:43.149Z,7.63
2023-04-05T00:41:11.103Z,9.70
2023-04-05T00:43:38.150Z,6.23
2023-04-05T00:46:08.484Z,9.00
2023-04-05T00:48:35.624Z,6.90
2023-04-05T00:51:02.591Z,6.27
2023-04-05T00:53:29.440Z,5.70
2023-04-05T00:55:57.238Z,6.07
2023-04-05T00:58:24.402Z,10.33
2023-04-05T01:01:13.550Z,7.13
2023-04-05T01:03:46.620Z,6.47
2023-04-05T01:06:20.842Z,5.83
2023-04-05T01:08:50.441Z,7.20
2023-04-05T01:11:18.880Z,6.10
2023-04-05T01:13:46.857Z,7.73
2023-04-05T01:16:15.601Z,6.30
2023-04-05T01:18:46.565Z,6.60
2023-04-05T01:21:34.442Z,7.20
2023-04-05T01:24:14.912Z,6.20
2023-04-05T01:26:54.705Z,5.47
2023-04-05T01:29:40.327Z,7.80
2023-04-05T01:32:45.316Z,8.73
2023-04-05T01:35:38.688Z,5.57
2023-04-05T01:38:10.334Z,7.43
2023-04-05T01:40:38.514Z,7.30
2023-04-05T01:43:15.938Z,6.90
2023-04-05T01:45:44.060Z,6.73
2023-04-05T01:48:11.420Z,7.03
2023-04-05T01:50:38.247Z,8.27
2023-04-05T01:53:08.304Z,7.83
2023-04-05T01:55:34.978Z,7.27
2023-04-05T01:58:01.680Z,6.07
2023-04-05T02:00:28.446Z,8.33
2023-04-05T02:02:55.430Z,7.43
2023-04-05T02:05:22.225Z,6.20
2023-04-05T02:07:48.878Z,7.20
2023-04-05T02:10:15.934Z,8.77
2023-04-05T02:12:42.640Z,7.47
2023-04-05T02:15:09.651Z,5.73
2023-04-05T02:17:39.552Z,7.10
2023-04-05T02:20:08.743Z,7.23
2023-04-05T02:22:36.846Z,6.67
2023-04-05T02:25:09.517Z,7.67
2023-04-05T02:27:36.486Z,8.30
2023-04-05T02:30:04.219Z,6.73
2023-04-05T02:32:31.978Z,9.43
2023-04-05T02:34:58.784Z,7.03
2023-04-05T02:37:27.085Z,5.17
2023-04-05T02:39:54.519Z,9.00
2023-04-05T02:42:21.298Z,7.17
2023-04-05T02:44:48.019Z,8.67
2023-04-05T02:47:21.216Z,7.50
2023-04-05T02:49:49.034Z,7.90
2023-04-05T02:52:16.686Z,11.37
2023-04-05T02:54:44.103Z,9.77
2023-04-05T02:57:11.664Z,7.20
2023-04-05T02:59:39.092Z,10.60
2023-04-05T03:02:06.579Z,8.67
2023-04-05T03:04:34.486Z,9.13
2023-04-05T03:07:04.758Z,7.40
2023-04-05T03:09:33.366Z,8.93
2023-04-05T03:12:04.083Z,6.60
2023-04-05T03:14:31.525Z,10.23
2023-04-05T03:16:58.545Z,9.40
2023-04-05T03:19:26.243Z,7.40
2023-04-05T03:21:56.266Z,8.10
2023-04-05T03:24:22.909Z,7.57
2023-04-05T03:26:50.131Z,8.10
2023-04-05T03:29:17.421Z,8.93
2023-04-05T03:31:45.460Z,8.63
2023-04-05T03:34:12.226Z,7.17
2023-04-05T03:36:42.403Z,7.90
2023-04-05T03:39:13.189Z,6.13
2023-04-05T03:41:41.281Z,8.17
2023-04-05T03:44:08.762Z,6.53
2023-04-05T03:46:38.098Z,6.77
2023-04-05T03:49:07.285Z,8.67
2023-04-05T03:51:34.094Z,6.73
2023-04-05T03:54:00.823Z,8.97
2023-04-05T03:56:27.594Z,10.70
2023-04-05T03:58:54.617Z,7.23
2023-04-05T04:01:22.033Z,7.97
2023-04-05T04:03:48.663Z,6.90
2023-04-05T04:06:18.644Z,8.87
2023-04-05T04:08:46.016Z,6.33
2023-04-05T04:11:12.775Z,7.10
2023-04-05T04:13:39.435Z,6.07
2023-04-05T04:16:06.367Z,7.80
2023-04-05T04:18:33.201Z,9.03
2023-04-05T04:21:06.753Z,6.80
2023-04-05T04:23:34.347Z,6.27
2023-04-05T04:26:01.712Z,6.17
2023-04-05T04:28:29.409Z,6.93
2023-04-05T04:30:56.123Z,11.67
2023-04-05T04:33:22.912Z,7.60
2023-04-05T04:35:49.603Z,5.97
2023-04-05T04:38:18.975Z,5.70
2023-04-05T04:40:50.878Z,7.70
2023-04-05T04:43:17.757Z,8.87
2023-04-05T04:45:48.746Z,8.80
2023-04-05T04:48:16.912Z,7.07
2023-04-05T04:50:44.614Z,7.47
2023-04-05T04:53:12.107Z,6.53
2023-04-05T04:55:45.100Z,7.07
2023-04-05T04:58:13.241Z,7.90
2023-04-05T05:00:41.865Z,7.27
2023-04-05T05:03:11.227Z,7.30
2023-04-05T05:05:45.846Z,5.90
2023-04-05T05:08:13.415Z,6.33
2023-04-05T05:10:40.475Z,9.37
2023-04-05T05:13:07.420Z,6.73
2023-04-05T05:15:34.216Z,8.17
2023-04-05T05:18:01.027Z,8.37
2023-04-05T05:20:28.600Z,10.77
2023-04-05T05:22:55.946Z,8.83
2023-04-05T05:25:22.818Z,9.83
2023-04-05T05:27:51.002Z,7.07
2023-04-05T05:30:18.699Z,8.80
2023-04-05T05:32:45.477Z,10.73
2023-04-05T05:35:12.567Z,6.33
2023-04-05T05:37:39.571Z,8.13
2023-04-05T05:40:07.309Z,9.60
2023-04-05T05:42:34.134Z,6.30
2023-04-05T05:45:06.278Z,6.80
2023-04-05T05:47:33.044Z,7.27
2023-04-05T05:49:59.798Z,8.53
2023-04-05T05:52:26.704Z,9.63
2023-04-05T05:54:53.404Z,8.80
2023-04-05T05:57:20.268Z,7.97
2023-04-05T05:59:46.934Z,9.30
2023-04-05T06:02:14.073Z,9.37
2023-04-05T06:04:41.028Z,8.03
2023-04-05T06:07:08.019Z,11.80
2023-04-05T06:09:35.392Z,13.53
2023-04-05T06:12:02.845Z,7.77
2023-04-05T06:14:29.958Z,6.90
2023-04-05T06:16:57.411Z,9.87
2023-04-05T06:19:24.085Z,12.23
2023-04-05T06:21:50.871Z,8.87
2023-04-05T06:24:17.558Z,6.77
2023-04-05T06:26:44.238Z,10.17
2023-04-05T06:29:11.295Z,10.13
2023-04-05T06:31:38.312Z,6.63
2023-04-05T06:34:05.623Z,10.50
2023-04-05T06:36:33.957Z,9.27
2023-04-05T06:39:00.970Z,7.60
2023-04-05T06:41:27.904Z,6.73
2023-04-05T06:43:55.529Z,5.63
2023-04-05T06:46:23.108Z,6.93
2023-04-05T06:48:50.661Z,9.97
2023-04-05T06:51:18.266Z,6.87
2023-04-05T06:53:44.949Z,5.57
2023-04-05T06:56:11.830Z,6.60
2023-04-05T06:58:38.862Z,5.63
2023-04-05T07:01:06.114Z,6.73
2023-04-05T07:03:33.962Z,6.77
2023-04-05T07:06:01.230Z,4.87
2023-04-05T07:08:29.415Z,5.70
2023-04-05T07:10:56.318Z,8.63
2023-04-05T07:13:24.531Z,4.60
2023-04-05T07:15:52.054Z,6.93
2023-04-05T07:18:19.553Z,7.70
2023-04-05T07:20:49.444Z,5.40
2023-04-05T07:23:16.611Z,7.10
2023-04-05T07:25:43.872Z,6.30
2023-04-05T07:28:10.611Z,7.73
2023-04-05T07:30:37.806Z,6.67
2023-04-05T07:33:04.820Z,7.17
2023-04-05T07:35:31.752Z,7.23
2023-04-05T07:37:58.841Z,7.70
2023-04-05T07:40:25.715Z,7.07
2023-04-05T07:42:52.514Z,6.40
2023-04-05T07:45:19.291Z,6.07
2023-04-05T07:47:46.470Z,7.57
2023-04-05T07:50:15.149Z,7.63
2023-04-05T07:52:42.853Z,6.63
2023-04-05T07:55:10.164Z,6.80
2023-04-05T07:57:37.420Z,8.57
2023-04-05T08:00:10.806Z,7.20
2023-04-05T08:02:37.759Z,7.57
2023-04-05T08:05:05.448Z,10.53
2023-04-05T08:07:32.207Z,7.03
2023-04-05T08:09:59.891Z,6.00
2023-04-05T08:12:27.257Z,6.37
2023-04-05T08:14:54.075Z,6.87
2023-04-05T08:17:20.758Z,7.43
2023-04-05T08:19:47.615Z,7.87
2023-04-05T08:22:16.498Z,6.60
2023-04-05T08:24:43.201Z,7.70
2023-04-05T08:27:09.953Z,5.90
2023-04-05T08:29:37.462Z,5.67
2023-04-05T08:32:04.702Z,6.90
2023-04-05T08:34:31.418Z,8.73
2023-04-05T08:36:59.825Z,7.37
2023-04-05T08:39:26.899Z,6.90
2023-04-05T08:42:12.498Z,7.90
2023-04-05T08:44:41.226Z,6.93
2023-04-05T08:47:14.864Z,6.90
2023-04-05T08:49:45.496Z,4.20
2023-04-05T08:52:12.342Z,5.63
2023-04-05T08:54:39.203Z,6.67
2023-04-05T08:57:07.214Z,4.60
2023-04-05T08:59:36.797Z,4.77
2023-04-05T09:02:12.175Z,4.73
2023-04-05T09:04:44.807Z,6.10
2023-04-05T09:07:13.800Z,7.90
2023-04-05T09:09:44.238Z,6.00
2023-04-05T09:12:11.615Z,5.77
2023-04-05T09:14:39.043Z,4.57
2023-04-05T09:17:06.780Z,5.63
2023-04-05T09:19:33.513Z,8.33
2023-04-05T09:22:10.751Z,5.37
2023-04-05T09:24:41.856Z,7.00
2023-04-05T09:27:12.554Z,4.70
2023-04-05T09:29:41.723Z,4.73
2023-04-05T09:32:10.636Z,6.37
2023-04-05T09:34:39.062Z,6.93
2023-04-05T09:37:32.225Z,4.90
2023-04-05T09:40:04.306Z,5.37
2023-04-05T09:42:44.290Z,7.20
2023-04-05T09:45:11.283Z,5.90
2023-04-05T09:47:38.257Z,4.87
2023-04-05T09:50:19.055Z,6.87
2023-04-05T09:52:46.462Z,7.80
2023-04-05T09:55:14.057Z,6.47
2023-04-05T09:57:43.675Z,7.60
2023-04-05T10:00:21.610Z,7.47
2023-04-05T10:02:53.884Z,6.03
2023-04-05T10:05:24.374Z,6.80
2023-04-05T10:07:52.257Z,5.43
2023-04-05T10:10:19.329Z,5.17
2023-04-05T10:12:47.990Z,5.40
2023-04-05T10:15:15.956Z,4.73
2023-04-05T10:17:51.726Z,7.57
2023-04-05T10:20:20.319Z,7.33
2023-04-05T10:23:07.449Z,4.47
2023-04-05T10:25:54.046Z,6.80
2023-04-05T10:28:34.547Z,5.90
2023-04-05T10:31:13.208Z,8.00
2023-04-05T10:33:47.826Z,6.07
2023-04-05T10:36:40.162Z,6.67
2023-04-05T10:39:13.893Z,6.33
2023-04-05T10:41:47.093Z,7.93
2023-04-05T10:44:25.705Z,7.67
2023-04-05T10:46:55.234Z,6.17
2023-04-05T10:49:31.365Z,5.97
2023-04-05T10:51:58.797Z,6.93
2023-04-05T10:54:25.848Z,6.73
2023-04-05T10:56:53.095Z,6.77
2023-04-05T10:59:22.066Z,6.63
2023-04-05T11:01:49.649Z,7.00
2023-04-05T11:04:17.675Z,6.63
2023-04-05T11:06:47.959Z,6.17
2023-04-05T11:09:17.444Z,6.60
2023-04-05T11:11:53.189Z,6.67
2023-04-05T11:14:35.812Z,6.53
2023-04-05T11:17:03.431Z,4.80
2023-04-05T11:19:46.375Z,8.43
2023-04-05T11:22:14.394Z,4.97
2023-04-05T11:24:57.699Z,6.37
2023-04-05T11:27:32.758Z,4.97
2023-04-05T11:30:01.592Z,6.80
2023-04-05T11:32:44.501Z,7.93
2023-04-05T11:35:17.617Z,6.90
2023-04-05T11:37:56.702Z,5.87
2023-04-05T11:40:27.414Z,6.63
2023-04-05T11:43:08.526Z,5.33
2023-04-05T11:45:37.666Z,6.53
2023-04-05T11:48:13.195Z,5.43
2023-04-05T11:50:45.405Z,6.30
2023-04-05T11:53:13.124Z,7.83
2023-04-05T11:55:42.175Z,6.27
2023-04-05T11:58:28.471Z,9.17
2023-04-05T12:01:03.205Z,6.73
2023-04-05T12:03:30.995Z,4.93
2023-04-05T12:06:00.221Z,6.07
2023-04-05T12:08:56.277Z,7.00
2023-04-05T12:11:27.422Z,6.53
2023-04-05T12:13:56.627Z,8.00
2023-04-05T12:16:23.322Z,6.73
2023-04-05T12:18:54.811Z,6.93
2023-04-05T12:21:22.047Z,7.33
2023-04-05T12:23:50.268Z,5.80
2023-04-05T12:26:17.989Z,6.63
2023-04-05T12:28:51.517Z,5.80
2023-04-05T12:31:18.462Z,7.47
2023-04-05T12:33:45.346Z,6.87
2023-04-05T12:36:15.672Z,7.30
2023-04-05T12:38:42.335Z,8.13
2023-04-05T12:41:09.226Z,6.93
2023-04-05T12:43:42.893Z,5.73
2023-04-05T12:46:16.861Z,6.73
2023-04-05T12:48:43.691Z,6.87
2023-04-05T12:51:17.320Z,6.27
2023-04-05T12:53:48.102Z,6.47
2023-04-05T12:56:16.521Z,6.93
2023-04-05T12:58:43.585Z,6.30
2023-04-05T13:01:10.714Z,6.40
2023-04-05T13:03:37.637Z,6.53
2023-04-05T13:06:04.383Z,6.20
2023-04-05T13:08:31.116Z,6.70
2023-04-05T13:10:58.359Z,10.37
2023-04-05T13:13:25.570Z,9.17
2023-04-05T13:15:52.688Z,8.20
2023-04-05T13:18:19.608Z,6.77
2023-04-05T13:20:46.934Z,7.17
2023-04-05T13:23:13.806Z,5.13
2023-04-05T13:25:42.370Z,5.77
2023-04-05T13:28:09.988Z,6.77
2023-04-05T13:30:36.908Z,7.73
2023-04-05T13:33:06.727Z,6.90
2023-04-05T13:35:33.694Z,7.07
2023-04-05T13:38:03.985Z,6.37
2023-04-05T13:40:32.151Z,6.13
2023-04-05T13:42:58.877Z,7.53
2023-04-05T13:45:25.541Z,7.30
2023-04-05T13:47:52.223Z,7.50
2023-04-05T13:50:18.912Z,6.63
2023-04-05T13:52:45.840Z,7.73
2023-04-05T13:55:12.510Z,7.13
2023-04-05T13:57:39.174Z,5.40
2023-04-05T14:00:06.816Z,7.03
2023-04-05T14:02:34.030Z,6.37
2023-04-05T14:05:01.297Z,9.60
2023-04-05T14:07:28.334Z,7.07
2023-04-05T14:09:54.978Z,9.00
2023-04-05T14:12:21.629Z,7.70
2023-04-05T14:14:48.367Z,7.17
2023-04-05T14:17:15.330Z,7.47
2023-04-05T14:19:42.070Z,6.40
2023-04-05T14:22:08.934Z,7.33
2023-04-05T14:24:35.782Z,5.83
2023-04-05T14:27:02.552Z,6.70
2023-04-05T14:29:29.282Z,7.20
2023-04-05T14:31:56.543Z,7.37
2023-04-05T14:34:23.301Z,6.50
2023-04-05T14:36:50.239Z,7.80
2023-04-05T14:39:17.159Z,8.00
2023-04-05T14:41:49.921Z,6.90
2023-04-05T14:44:16.755Z,8.97
2023-04-05T14:46:43.604Z,8.73
2023-04-05T14:49:10.335Z,7.30
2023-04-05T14:51:37.100Z,7.57
2023-04-05T14:54:04.166Z,8.33
2023-04-05T14:56:30.927Z,7.67
2023-04-05T14:58:57.869Z,8.80
2023-04-05T15:01:25.398Z,8.70
2023-04-05T15:03:53.647Z,7.10
2023-04-05T15:06:20.768Z,7.67
2023-04-05T15:08:47.589Z,7.40
2023-04-05T15:11:14.409Z,9.83
2023-04-05T15:13:41.227Z,7.77
2023-04-05T15:16:07.982Z,6.43
2023-04-05T15:18:34.729Z,7.27
2023-04-05T15:21:01.623Z,7.07
2023-04-05T15:23:28.479Z,7.47
2023-04-05T15:25:55.244Z,7.67
2023-04-05T15:28:21.999Z,6.57
2023-04-05T15:30:51.052Z,8.17
2023-04-05T15:33:17.846Z,7.23
2023-04-05T15:35:44.608Z,6.33
2023-04-05T15:38:11.356Z,7.67
2023-04-05T15:40:39.658Z,8.77
2023-04-05T15:43:06.449Z,5.50
2023-04-05T15:45:33.176Z,6.30
2023-04-05T15:48:00.110Z,7.57
2023-04-05T15:50:27.027Z,7.60
2023-04-05T15:52:53.742Z,6.97
2023-04-05T15:55:20.616Z,9.73
2023-04-05T15:57:49.442Z,7.10
2023-04-05T16:00:16.564Z,7.23
2023-04-05T16:02:43.442Z,7.37
2023-04-05T16:05:10.621Z,9.00
2023-04-05T16:07:37.473Z,7.30
2023-04-05T16:10:05.160Z,7.60
2023-04-05T16:12:32.335Z,9.60
2023-04-05T16:14:59.105Z,9.33
2023-04-05T16:17:27.570Z,7.10
2023-04-05T16:19:56.925Z,8.43
2023-04-05T16:22:24.415Z,8.97
2023-04-05T16:24:51.698Z,6.83
2023-04-05T16:27:18.532Z,8.87
2023-04-05T16:29:45.433Z,7.07
2023-04-05T16:32:12.691Z,9.33
2023-04-05T16:34:39.541Z,5.83
2023-04-05T16:37:06.396Z,7.70
2023-04-05T16:39:33.135Z,5.97
2023-04-05T16:42:00.152Z,10.70
2023-04-05T16:44:26.961Z,8.33
2023-04-05T16:46:54.163Z,6.33
2023-04-05T16:49:20.891Z,8.83
2023-04-05T16:51:48.118Z,9.67
2023-04-05T16:54:16.670Z,8.43
2023-04-05T16:56:43.455Z,11.70
2023-04-05T16:59:10.551Z,10.97
2023-04-05T17:01:37.627Z,9.23
2023-04-05T17:04:04.428Z,7.73
2023-04-05T17:06:31.773Z,6.50
2023-04-05T17:08:58.469Z,8.37
2023-04-05T17:11:28.188Z,7.43
2023-04-05T17:13:55.321Z,7.40
2023-04-05T17:16:22.698Z,8.27
2023-04-05T17:18:49.579Z,8.57
2023-04-05T17:21:17.035Z,6.87
2023-04-05T17:23:43.777Z,10.97
2023-04-05T17:26:11.016Z,9.43
2023-04-05T17:28:38.009Z,9.23
2023-04-05T17:31:04.967Z,7.80
2023-04-05T17:33:32.281Z,12.50
2023-04-05T17:35:59.575Z,8.00
2023-04-05T17:38:27.733Z,11.73
2023-04-05T17:40:57.100Z,9.40
2023-04-05T17:43:24.232Z,7.83
2023-04-05T17:45:51.709Z,7.53
2023-04-05T17:48:19.014Z,6.50
2023-04-05T17:50:46.064Z,9.47
2023-04-05T17:53:14.817Z,9.03
2023-04-05T17:55:41.661Z,10.93
2023-04-05T17:58:08.613Z,8.03
2023-04-05T18:00:35.322Z,9.27
2023-04-05T18:03:07.402Z,9.77
2023-04-05T18:05:34.913Z,12.73
2023-04-05T18:08:01.663Z,11.13
2023-04-05T18:10:28.530Z,12.40
2023-04-05T18:12:55.703Z,14.03
2023-04-05T18:15:22.514Z,13.70
2023-04-05T18:17:49.264Z,12.00
2023-04-05T18:20:16.333Z,8.53
2023-04-05T18:22:43.126Z,9.00
2023-04-05T18:25:11.720Z,9.50
2023-04-05T18:27:39.350Z,8.30
2023-04-05T18:30:06.790Z,7.20
2023-04-05T18:32:33.609Z,9.07
2023-04-05T18:35:00.368Z,8.90
2023-04-05T18:37:27.490Z,10.90
2023-04-05T18:39:54.257Z,9.80
2023-04-05T18:42:21.170Z,7.37
2023-04-05T18:44:47.969Z,8.47
2023-04-05T18:47:14.740Z,9.30
2023-04-05T18:49:41.688Z,9.87
2023-04-05T18:52:08.451Z,19.90
2023-04-05T18:54:35.386Z,16.97
2023-04-05T18:57:02.848Z,18.83
2023-04-05T18:59:29.689Z,20.17
2023-04-05T19:01:56.506Z,16.67
2023-04-05T19:04:23.555Z,18.73
2023-04-05T19:06:50.297Z,13.80
2023-04-05T19:09:18.125Z,11.47
2023-04-05T19:11:44.865Z,10.27
2023-04-05T19:14:11.631Z,9.97
2023-04-05T19:16:38.339Z,13.77
2023-04-05T19:19:06.595Z,9.30
2023-04-05T19:21:33.595Z,12.20
2023-04-05T19:24:00.464Z,10.00
2023-04-05T19:26:27.249Z,11.33
2023-04-05T19:28:54.969Z,12.10
2023-04-05T19:31:21.742Z,14.97
2023-04-05T19:33:50.124Z,16.30
2023-04-05T19:36:17.040Z,14.63
2023-04-05T19:38:43.912Z,11.43
2023-04-05T19:41:10.799Z,11.90
2023-04-05T19:43:40.904Z,10.90
2023-04-05T19:46:12.263Z,11.10
2023-04-05T19:48:44.769Z,11.40
2023-04-05T19:51:14.175Z,9.97
2023-04-05T19:53:48.633Z,10.93
2023-04-05T19:56:28.337Z,12.53
2023-04-05T19:59:31.352Z,10.60
2023-04-05T20:01:59.420Z,12.63
2023-04-05T20:04:27.481Z,12.77
2023-04-05T20:06:55.759Z,11.60
2023-04-05T20:09:29.280Z,11.60
2023-04-05T20:12:01.788Z,14.10
2023-04-05T20:14:30.829Z,14.53
2023-04-05T20:16:58.834Z,12.67
2023-04-05T20:19:30.844Z,11.17
2023-04-05T20:22:00.067Z,14.50
2023-04-05T20:24:27.925Z,12.87
2023-04-05T20:26:55.101Z,13.07
2023-04-05T20:29:28.792Z,12.47
2023-04-05T20:31:56.001Z,13.13
2023-04-05T20:34:33.581Z,14.83
2023-04-05T20:37:08.061Z,16.63
2023-04-05T20:39:35.406Z,15.93
2023-04-05T20:42:03.677Z,13.57
2023-04-05T20:44:30.503Z,13.47
2023-04-05T20:46:58.167Z,12.80
2023-04-05T20:49:25.175Z,16.37
2023-04-05T20:51:52.120Z,13.53
2023-04-05T20:54:20.258Z,17.87
2023-04-05T20:56:47.352Z,19.77
2023-04-05T20:59:17.108Z,15.83
2023-04-05T21:01:44.018Z,16.67
2023-04-05T21:04:11.108Z,16.23
2023-04-05T21:06:37.912Z,13.77
2023-04-05T21:09:05.050Z,14.53
2023-04-05T21:11:32.010Z,18.70
2023-04-05T21:13:58.750Z,16.97
2023-04-05T21:16:25.715Z,13.17
2023-04-05T21:18:52.516Z,14.73
2023-04-05T21:21:19.440Z,13.03
2023-04-05T21:23:46.160Z,17.17
2023-04-05T21:26:12.865Z,17.10
2023-04-05T21:28:39.603Z,16.80
2023-04-05T21:31:06.486Z,15.47
2023-04-05T21:33:33.415Z,16.73
2023-04-05T21:36:00.403Z,16.37
2023-04-05T21:38:27.291Z,14.03
2023-04-05T21:40:55.391Z,16.37
2023-04-05T21:43:22.348Z,14.67
2023-04-05T21:45:49.141Z,15.40
2023-04-05T21:48:15.932Z,16.30
2023-04-05T21:50:42.639Z,14.77
2023-04-05T21:53:09.883Z,13.40
2023-04-05T21:55:36.751Z,15.47
2023-04-05T21:58:03.502Z,14.37
2023-04-05T22:00:30.326Z,10.40
2023-04-05T22:02:57.079Z,10.60
2023-04-05T22:05:36.433Z,11.17
2023-04-05T22:08:05.684Z,13.83
2023-04-05T22:10:32.909Z,12.37
2023-04-05T22:12:59.705Z,12.03
2023-04-05T22:15:26.464Z,10.90
2023-04-05T22:17:53.251Z,12.17
2023-04-05T22:20:19.979Z,9.63
2023-04-05T22:22:46.795Z,13.23
2023-04-05T22:25:13.598Z,10.27
2023-04-05T22:27:40.393Z,12.20
2023-04-05T22:30:08.307Z,13.60
2023-04-05T22:32:35.709Z,10.83
2023-04-05T22:35:04.325Z,11.00
2023-04-05T22:37:35.729Z,9.67
2023-04-05T22:40:04.104Z,11.53
2023-04-05T22:42:30.974Z,8.57
2023-04-05T22:44:57.715Z,9.13
2023-04-05T22:47:24.666Z,9.60
2023-04-05T22:49:52.161Z,23.73
2023-04-05T22:52:19.023Z,11.00
2023-04-05T22:54:45.972Z,12.30
2023-04-05T22:57:12.948Z,13.07
2023-04-05T22:59:39.887Z,8.77
2023-04-05T23:02:06.792Z,10.83
2023-04-05T23:04:33.582Z,10.70
2023-04-05T23:07:00.551Z,10.40
2023-04-05T23:09:27.542Z,8.97
2023-04-05T23:11:54.340Z,11.80
2023-04-05T23:14:21.622Z,9.33
2023-04-05T23:16:48.335Z,10.70
2023-04-05T23:19:15.361Z,10.93
2023-04-05T23:21:42.245Z,10.37
2023-04-05T23:24:10.731Z,10.03
2023-04-05T23:26:37.555Z,10.60
2023-04-05T23:29:04.367Z,10.70
2023-04-05T23:31:31.193Z,9.70
2023-04-05T23:33:58.052Z,15.20
2023-04-05T23:36:24.934Z,8.70
2023-04-05T23:38:51.647Z,9.40
2023-04-05T23:41:18.577Z,10.17
2023-04-05T23:43:46.004Z,12.23
2023-04-05T23:48:39.845Z,11.07
2023-04-05T23:51:06.605Z,9.63
2023-04-05T23:53:33.344Z,12.80
2023-04-05T23:56:00.106Z,11.47
2023-04-05T23:58:26.924Z,10.13
